createdAt,value
2022-12-04T00:00:33.048Z,48.08
2022-12-04T00:02:59.826Z,49.85
2022-12-04T00:05:26.895Z,51.13
2022-12-04T00:07:53.942Z,43.65
2022-12-04T00:10:22.302Z,48.85
2022-12-04T00:12:48.942Z,46.40
2022-12-04T00:15:25.039Z,45.72
2022-12-04T00:17:52.880Z,43.70
2022-12-04T00:20:19.704Z,45.65
2022-12-04T00:22:46.318Z,44.08
2022-12-04T00:25:13.032Z,41.30
2022-12-04T00:27:41.329Z,46.25
2022-12-04T00:30:09.329Z,46.15
2022-12-04T00:32:36.043Z,42.65
2022-12-04T00:35:03.375Z,42.83
2022-12-04T00:37:29.988Z,45.78
2022-12-04T00:39:56.910Z,34.65
2022-12-04T00:42:23.891Z,43.40
2022-12-04T00:44:52.145Z,39.30
2022-12-04T00:47:18.741Z,42.45
2022-12-04T00:49:45.487Z,41.88
2022-12-04T00:52:12.620Z,42.47
2022-12-04T00:54:39.367Z,43.58
2022-12-04T00:57:06.129Z,43.05
2022-12-04T00:59:33.196Z,37.28
2022-12-04T01:02:01.468Z,37.60
2022-12-04T01:04:28.336Z,37.60
2022-12-04T01:06:58.004Z,34.58
2022-12-04T01:09:27.018Z,37.00
2022-12-04T01:11:53.818Z,37.75
2022-12-04T01:14:20.944Z,38.92
2022-12-04T01:16:48.827Z,36.38
2022-12-04T01:19:17.657Z,38.60
2022-12-04T01:21:44.600Z,38.92
2022-12-04T01:24:11.719Z,37.58
2022-12-04T01:26:38.696Z,36.15
2022-12-04T01:29:05.776Z,37.10
2022-12-04T01:31:35.573Z,37.05
2022-12-04T01:34:03.752Z,38.25
2022-12-04T01:36:32.354Z,41.20
2022-12-04T01:39:00.220Z,33.70
2022-12-04T01:41:30.080Z,38.17
2022-12-04T01:44:11.847Z,45.92
2022-12-04T01:46:38.844Z,42.75
2022-12-04T01:49:08.134Z,39.47
2022-12-04T01:51:39.430Z,39.28
2022-12-04T01:56:39.896Z,39.20
2022-12-04T01:59:08.608Z,42.22
2022-12-04T02:01:42.986Z,38.50
2022-12-04T02:04:10.176Z,37.67
2022-12-04T02:06:39.395Z,41.15
2022-12-04T02:09:07.698Z,41.25
2022-12-04T02:11:44.258Z,38.83
2022-12-04T02:14:20.972Z,38.15
2022-12-04T02:16:56.706Z,37.83
2022-12-04T02:19:52.970Z,39.42
2022-12-04T02:22:35.914Z,41.05
2022-12-04T02:25:15.060Z,37.75
2022-12-04T02:28:03.870Z,42.65
2022-12-04T02:30:35.666Z,40.33
2022-12-04T02:33:07.561Z,40.75
2022-12-04T02:35:39.796Z,40.50
2022-12-04T02:38:11.916Z,41.35
2022-12-04T02:40:45.143Z,40.55
2022-12-04T02:43:18.127Z,46.72
2022-12-04T02:45:48.586Z,47.85
2022-12-04T02:48:22.493Z,42.83
2022-12-04T02:50:54.964Z,47.97
2022-12-04T02:53:29.515Z,45.65
2022-12-04T02:56:02.349Z,47.83
2022-12-04T02:58:37.009Z,44.00
2022-12-04T03:01:09.667Z,49.88
2022-12-04T03:03:37.487Z,48.85
2022-12-04T03:06:07.785Z,45.10
2022-12-04T03:08:39.408Z,49.13
2022-12-04T03:11:07.991Z,42.28
2022-12-04T03:13:41.708Z,52.13
2022-12-04T03:16:13.453Z,57.30
2022-12-04T03:18:43.767Z,49.47
2022-12-04T03:21:14.808Z,52.08
2022-12-04T03:23:49.181Z,53.33
2022-12-04T03:26:25.897Z,59.00
2022-12-04T03:28:59.824Z,52.35
2022-12-04T03:31:38.443Z,56.42
2022-12-04T03:34:10.857Z,56.25
2022-12-04T03:36:43.199Z,54.85
2022-12-04T03:39:18.992Z,53.50
2022-12-04T03:41:55.438Z,52.58
2022-12-04T03:44:29.275Z,54.40
2022-12-04T03:47:00.637Z,57.83
2022-12-04T03:49:38.328Z,56.88
2022-12-04T03:52:27.546Z,61.40
2022-12-04T03:55:00.447Z,56.53
2022-12-04T03:57:31.395Z,58.78
2022-12-04T04:00:05.473Z,60.00
2022-12-04T04:02:39.127Z,61.58
2022-12-04T04:05:10.419Z,58.72
2022-12-04T04:07:42.391Z,61.00
2022-12-04T04:10:15.979Z,60.55
2022-12-04T04:12:48.235Z,58.85
2022-12-04T04:15:18.595Z,63.83
2022-12-04T04:17:49.415Z,61.43
2022-12-04T04:20:23.706Z,61.63
2022-12-04T04:22:56.802Z,64.00
2022-12-04T04:25:27.139Z,61.15
2022-12-04T04:27:54.854Z,62.63
2022-12-04T04:30:23.805Z,60.40
2022-12-04T04:32:58.712Z,62.00
2022-12-04T04:35:33.302Z,58.58
2022-12-04T04:38:09.122Z,64.30
2022-12-04T04:40:43.918Z,64.53
2022-12-04T04:43:15.588Z,62.70
2022-12-04T04:45:50.223Z,66.90
2022-12-04T04:48:21.649Z,65.40
2022-12-04T04:50:51.153Z,65.03
2022-12-04T04:53:21.143Z,68.40
2022-12-04T04:55:49.051Z,62.42
2022-12-04T04:58:19.408Z,62.53
2022-12-04T05:00:56.018Z,63.53
2022-12-04T05:03:22.996Z,61.97
2022-12-04T05:05:50.973Z,62.33
2022-12-04T05:08:18.312Z,58.95
2022-12-04T05:10:45.228Z,62.25
2022-12-04T05:13:12.601Z,62.88
2022-12-04T05:15:39.742Z,64.80
2022-12-04T05:18:15.605Z,64.43
2022-12-04T05:20:42.605Z,67.15
2022-12-04T05:23:09.260Z,68.18
2022-12-04T05:25:35.981Z,63.17
2022-12-04T05:28:02.823Z,64.32
2022-12-04T05:30:29.680Z,62.13
2022-12-04T05:32:56.720Z,60.42
2022-12-04T05:35:25.341Z,60.80
2022-12-04T05:37:52.412Z,64.35
2022-12-04T05:40:19.308Z,62.92
2022-12-04T05:42:46.318Z,64.57
2022-12-04T05:45:14.911Z,62.85
2022-12-04T05:47:44.171Z,65.82
2022-12-04T05:50:13.216Z,63.42
2022-12-04T05:52:41.898Z,63.50
2022-12-04T05:55:09.015Z,60.85
2022-12-04T05:57:37.919Z,60.83
2022-12-04T06:00:08.913Z,62.60
2022-12-04T06:02:36.193Z,66.10
2022-12-04T06:05:04.095Z,64.65
2022-12-04T06:07:30.792Z,64.50
2022-12-04T06:09:59.044Z,64.22
2022-12-04T06:12:25.751Z,63.45
2022-12-04T06:14:52.912Z,63.92
2022-12-04T06:17:19.731Z,64.22
2022-12-04T06:19:46.657Z,63.70
2022-12-04T06:22:13.819Z,64.30
2022-12-04T06:24:40.779Z,66.25
2022-12-04T06:27:27.225Z,63.08
2022-12-04T06:29:55.351Z,61.08
2022-12-04T06:32:22.593Z,59.65
2022-12-04T06:34:52.754Z,61.47
2022-12-04T06:37:20.624Z,61.78
2022-12-04T06:39:47.579Z,59.92
2022-12-04T06:42:17.449Z,63.55
2022-12-04T06:44:44.302Z,60.50
2022-12-04T06:47:11.237Z,62.08
2022-12-04T06:49:38.039Z,65.10
2022-12-04T06:52:07.255Z,65.70
2022-12-04T06:54:34.024Z,61.95
2022-12-04T06:57:00.790Z,60.92
2022-12-04T06:59:29.465Z,61.30
2022-12-04T07:01:56.874Z,63.13
2022-12-04T07:04:23.859Z,59.08
2022-12-04T07:06:53.201Z,58.60
2022-12-04T07:09:20.337Z,60.58
2022-12-04T07:11:47.188Z,65.65
2022-12-04T07:14:14.618Z,60.30
2022-12-04T07:16:43.341Z,61.15
2022-12-04T07:19:10.942Z,63.22
2022-12-04T07:21:38.095Z,59.45
2022-12-04T07:24:05.344Z,59.30
2022-12-04T07:26:38.358Z,62.35
2022-12-04T07:29:05.192Z,57.38
2022-12-04T07:31:32.120Z,66.15
2022-12-04T07:34:01.620Z,65.45
2022-12-04T07:36:28.358Z,64.88
2022-12-04T07:38:56.308Z,61.83
2022-12-04T07:41:23.467Z,62.05
2022-12-04T07:43:50.277Z,61.15
2022-12-04T07:46:19.951Z,68.43
2022-12-04T07:48:46.797Z,64.55
2022-12-04T07:51:17.312Z,63.65
2022-12-04T07:53:45.005Z,66.22
2022-12-04T07:56:13.028Z,66.80
2022-12-04T07:58:43.854Z,68.97
2022-12-04T08:01:13.019Z,60.80
2022-12-04T08:03:46.829Z,66.15
2022-12-04T08:06:16.888Z,61.17
2022-12-04T08:08:43.658Z,64.13
2022-12-04T08:11:13.598Z,60.38
2022-12-04T08:13:40.850Z,61.47
2022-12-04T08:16:13.081Z,67.55
2022-12-04T08:18:40.503Z,66.80
2022-12-04T08:21:09.180Z,66.20
2022-12-04T08:23:37.901Z,66.45
2022-12-04T08:26:06.699Z,59.33
2022-12-04T08:28:33.771Z,62.83
2022-12-04T08:31:03.016Z,59.42
2022-12-04T08:33:29.911Z,65.88
2022-12-04T08:35:56.663Z,65.00
2022-12-04T08:38:23.589Z,67.45
2022-12-04T08:40:52.207Z,62.50
2022-12-04T08:43:18.837Z,70.22
2022-12-04T08:45:55.348Z,61.75
2022-12-04T08:48:23.879Z,65.47
2022-12-04T08:50:50.651Z,67.05
2022-12-04T08:53:17.816Z,64.20
2022-12-04T08:55:46.396Z,64.95
2022-12-04T08:58:17.504Z,62.50
2022-12-04T09:00:44.702Z,64.20
2022-12-04T09:03:18.156Z,66.82
2022-12-04T09:05:48.754Z,65.65
2022-12-04T09:08:18.018Z,63.88
2022-12-04T09:10:44.791Z,62.00
2022-12-04T09:13:11.849Z,60.65
2022-12-04T09:15:41.400Z,63.55
2022-12-04T09:18:08.702Z,60.08
2022-12-04T09:20:36.785Z,67.43
2022-12-04T09:23:06.800Z,61.97
2022-12-04T09:25:37.276Z,61.15
2022-12-04T09:28:07.312Z,59.05
2022-12-04T09:30:34.341Z,58.67
2022-12-04T09:33:04.856Z,63.90
2022-12-04T09:35:31.513Z,63.92
2022-12-04T09:37:58.584Z,60.40
2022-12-04T09:40:35.221Z,64.90
2022-12-04T09:43:17.037Z,57.85
2022-12-04T09:45:47.560Z,57.92
2022-12-04T09:48:20.861Z,56.72
2022-12-04T09:50:50.348Z,61.13
2022-12-04T09:53:20.858Z,60.88
2022-12-04T10:04:47.149Z,59.30
2022-12-04T10:07:20.007Z,50.88
2022-12-04T10:09:55.054Z,56.95
2022-12-04T10:12:30.453Z,52.50
2022-12-04T10:15:08.944Z,50.03
2022-12-04T10:17:49.528Z,49.70
2022-12-04T10:20:43.997Z,55.95
2022-12-04T10:23:21.269Z,46.78
2022-12-04T10:25:50.828Z,48.83
2022-12-04T10:28:26.402Z,51.60
2022-12-04T10:30:57.361Z,52.33
2022-12-04T10:33:32.138Z,49.70
2022-12-04T10:36:02.264Z,48.30
2022-12-04T10:38:35.580Z,48.97
2022-12-04T10:41:13.311Z,47.47
2022-12-04T10:43:44.078Z,47.47
2022-12-04T10:46:14.460Z,41.50
2022-12-04T10:48:44.213Z,44.20
2022-12-04T10:51:17.136Z,44.75
2022-12-04T10:53:45.526Z,46.50
2022-12-04T10:56:14.566Z,41.60
2022-12-04T10:58:42.487Z,41.30
2022-12-04T11:01:12.575Z,41.65
2022-12-04T11:03:39.589Z,42.97
2022-12-04T11:06:17.522Z,37.80
2022-12-04T11:08:51.332Z,36.50
2022-12-04T11:11:24.531Z,35.58
2022-12-04T11:14:02.281Z,36.85
2022-12-04T11:16:34.869Z,32.80
2022-12-04T11:19:01.774Z,33.42
2022-12-04T11:21:30.783Z,36.05
2022-12-04T11:24:01.439Z,31.23
2022-12-04T11:26:33.800Z,32.47
2022-12-04T11:29:01.880Z,33.67
2022-12-04T11:31:29.879Z,29.85
2022-12-04T11:34:00.129Z,30.85
2022-12-04T11:36:29.338Z,30.45
2022-12-04T11:39:07.200Z,28.58
2022-12-04T11:41:34.502Z,28.30
2022-12-04T11:44:01.264Z,29.17
2022-12-04T11:46:30.079Z,24.75
2022-12-04T11:48:57.147Z,31.23
2022-12-04T11:51:39.350Z,29.60
2022-12-04T11:54:20.028Z,27.27
2022-12-04T11:56:50.305Z,26.10
2022-12-04T11:59:41.650Z,29.73
2022-12-04T12:02:31.418Z,25.13
2022-12-04T12:05:16.114Z,25.90
2022-12-04T12:08:04.381Z,25.92
2022-12-04T12:10:44.382Z,25.33
2022-12-04T12:13:21.601Z,18.87
2022-12-04T12:15:57.527Z,24.45
2022-12-04T12:18:45.831Z,23.95
2022-12-04T12:21:19.308Z,23.70
2022-12-04T12:24:01.162Z,28.30
2022-12-04T12:26:37.130Z,28.70
2022-12-04T12:29:25.201Z,26.25
2022-12-04T12:32:24.947Z,24.98
2022-12-04T12:34:52.276Z,23.92
2022-12-04T12:37:24.195Z,20.83
2022-12-04T12:39:57.458Z,19.45
2022-12-04T12:42:31.609Z,20.55
2022-12-04T12:45:05.067Z,22.92
2022-12-04T12:47:39.732Z,21.63
2022-12-04T12:50:14.815Z,21.80
2022-12-04T12:52:46.419Z,21.48
2022-12-04T12:55:19.218Z,20.15
2022-12-04T12:57:52.877Z,18.50
2022-12-04T13:00:21.710Z,19.20
2022-12-04T13:02:55.721Z,17.75
2022-12-04T13:05:29.445Z,18.27
2022-12-04T13:08:04.649Z,18.90
2022-12-04T13:10:37.660Z,16.80
2022-12-04T13:13:10.384Z,20.88
2022-12-04T13:15:44.491Z,19.65
2022-12-04T13:18:26.626Z,19.38
2022-12-04T13:20:57.055Z,20.27
2022-12-04T13:23:41.596Z,21.03
2022-12-04T13:26:17.810Z,21.27
2022-12-04T13:28:55.670Z,19.33
2022-12-04T13:31:33.474Z,22.50
2022-12-04T13:34:22.187Z,21.20
2022-12-04T13:37:05.608Z,20.27
2022-12-04T13:40:09.412Z,22.55
2022-12-04T13:42:36.377Z,26.75
2022-12-04T13:45:10.843Z,24.13
2022-12-04T13:47:38.395Z,22.75
2022-12-04T13:50:28.695Z,21.48
2022-12-04T13:52:56.342Z,25.73
2022-12-04T13:55:39.466Z,21.85
2022-12-04T13:58:26.063Z,23.75
2022-12-04T14:01:02.818Z,27.27
2022-12-04T14:03:32.890Z,28.27
2022-12-04T14:06:01.539Z,21.83
2022-12-04T14:08:38.656Z,26.48
2022-12-04T14:11:08.565Z,27.30
2022-12-04T14:13:43.556Z,24.42
2022-12-04T14:16:21.046Z,26.98
2022-12-04T14:18:51.802Z,26.80
2022-12-04T14:21:18.696Z,28.15
2022-12-04T14:23:45.539Z,28.02
2022-12-04T14:26:21.837Z,29.92
2022-12-04T14:28:52.677Z,32.20
2022-12-04T14:31:30.549Z,29.10
2022-12-04T14:33:59.656Z,30.83
2022-12-04T14:36:28.450Z,28.50
2022-12-04T14:39:09.220Z,29.77
2022-12-04T14:41:36.158Z,32.80
2022-12-04T14:44:02.977Z,34.30
2022-12-04T14:46:48.275Z,35.95
2022-12-04T14:49:27.070Z,40.22
2022-12-04T14:52:03.663Z,33.83
2022-12-04T14:54:40.098Z,38.80
2022-12-04T14:57:22.606Z,37.75
2022-12-04T14:59:53.255Z,35.08
2022-12-04T15:02:29.711Z,28.02
2022-12-04T15:04:57.223Z,37.63
2022-12-04T15:07:31.094Z,38.95
2022-12-04T15:10:00.292Z,39.88
2022-12-04T15:12:27.025Z,48.33
2022-12-04T15:14:55.286Z,50.25
2022-12-04T15:17:24.813Z,44.95
2022-12-04T15:19:51.799Z,40.25
2022-12-04T15:22:24.649Z,43.22
2022-12-04T15:24:52.833Z,47.20
2022-12-04T15:27:26.093Z,43.28
2022-12-04T15:29:57.637Z,47.65
2022-12-04T15:32:26.594Z,47.90
2022-12-04T15:34:59.352Z,43.22
2022-12-04T15:37:28.596Z,41.22
2022-12-04T15:39:56.543Z,49.45
2022-12-04T15:42:30.130Z,46.25
2022-12-04T15:44:58.524Z,38.00
2022-12-04T15:47:29.205Z,38.47
2022-12-04T15:50:08.060Z,35.17
2022-12-04T15:52:47.968Z,30.35
2022-12-04T15:55:24.597Z,30.25
2022-12-04T15:57:55.840Z,36.35
2022-12-04T16:00:27.720Z,33.53
2022-12-04T16:07:01.761Z,30.83
2022-12-04T16:17:39.685Z,22.05
2022-12-04T16:19:44.606Z,28.30
2022-12-04T16:22:39.473Z,27.17
2022-12-04T16:31:40.506Z,30.92
2022-12-04T16:34:21.675Z,33.95
2022-12-04T16:37:02.840Z,36.25
2022-12-04T16:42:56.453Z,34.22
2022-12-04T16:48:44.686Z,37.38
2022-12-04T16:51:21.899Z,37.63
2022-12-04T16:54:12.530Z,39.53
2022-12-04T16:56:43.991Z,40.80
2022-12-04T16:59:16.223Z,40.15
2022-12-04T17:01:46.013Z,41.47
2022-12-04T17:04:15.601Z,48.60
2022-12-04T17:06:42.793Z,44.60
2022-12-04T17:09:13.467Z,45.17
2022-12-04T17:11:43.669Z,45.40
2022-12-04T17:14:20.008Z,44.45
2022-12-04T17:17:32.664Z,45.83
2022-12-04T17:20:02.309Z,48.22
2022-12-04T17:22:42.807Z,44.70
2022-12-04T17:31:44.311Z,40.13
2022-12-04T17:34:47.478Z,46.55
2022-12-04T17:38:08.184Z,44.97
2022-12-04T17:41:30.303Z,45.25
2022-12-04T17:44:17.369Z,44.65
2022-12-04T17:46:57.113Z,44.15
2022-12-04T17:49:51.409Z,47.97
2022-12-04T17:52:36.236Z,45.67
2022-12-04T17:55:09.115Z,44.30
2022-12-04T17:57:41.877Z,39.20
2022-12-04T18:04:29.789Z,42.70
2022-12-04T18:07:39.583Z,41.20
2022-12-04T18:13:50.521Z,39.13
2022-12-04T18:17:17.620Z,43.58
2022-12-04T18:20:48.241Z,38.17
2022-12-04T18:23:46.522Z,42.35
2022-12-04T18:27:11.038Z,41.15
2022-12-04T18:29:52.280Z,40.30
2022-12-04T18:32:47.154Z,44.35
2022-12-04T18:35:20.558Z,40.20
2022-12-04T18:37:49.424Z,42.17
2022-12-04T18:43:48.309Z,41.50
2022-12-04T18:47:35.637Z,39.45
2022-12-04T18:50:29.270Z,40.80
2022-12-04T18:53:17.464Z,43.17
2022-12-04T18:56:52.171Z,41.65
2022-12-04T19:03:28.575Z,41.15
2022-12-04T19:16:19.197Z,39.35
2022-12-04T19:19:17.098Z,41.75
2022-12-04T19:22:02.172Z,38.80
2022-12-04T19:25:05.843Z,41.65
2022-12-04T19:43:12.416Z,43.08
2022-12-04T19:46:06.881Z,41.55
2022-12-04T19:48:48.824Z,43.03
2022-12-04T19:52:34.957Z,47.40
2022-12-04T19:54:47.340Z,60.53
2022-12-04T19:57:26.002Z,47.42
2022-12-04T20:16:15.984Z,41.53
2022-12-04T20:19:26.292Z,43.17
2022-12-04T20:22:33.453Z,43.97
2022-12-04T20:25:24.736Z,42.28
2022-12-04T20:28:14.671Z,40.53
2022-12-04T20:34:02.785Z,43.72
2022-12-04T20:40:29.152Z,45.47
2022-12-04T20:43:28.300Z,43.28
2022-12-04T20:46:05.792Z,40.47
2022-12-04T20:49:20.798Z,43.22
2022-12-04T20:51:57.613Z,41.15
2022-12-04T20:54:24.386Z,44.17
2022-12-04T20:57:00.554Z,38.65
2022-12-04T20:59:49.536Z,41.47
2022-12-04T21:02:27.186Z,37.78
2022-12-04T21:08:05.508Z,41.42
2022-12-04T21:13:41.964Z,40.03
2022-12-04T21:16:19.171Z,39.50
2022-12-04T21:21:46.790Z,39.65
2022-12-04T21:24:27.383Z,40.95
2022-12-04T21:27:04.695Z,39.27
2022-12-04T21:29:31.800Z,42.28
2022-12-04T21:32:08.872Z,37.25
2022-12-04T21:38:17.079Z,40.45
2022-12-04T21:40:55.258Z,44.80
2022-12-04T21:47:04.422Z,48.63
2022-12-04T21:49:51.658Z,45.63
2022-12-04T21:52:47.018Z,49.28
2022-12-04T21:58:33.104Z,46.78
2022-12-04T22:01:09.436Z,42.95
2022-12-04T22:03:39.097Z,41.38
2022-12-04T22:06:25.399Z,46.40
2022-12-04T22:08:59.270Z,44.10
2022-12-04T22:12:26.481Z,42.35
2022-12-04T22:19:08.990Z,43.20
2022-12-04T22:22:02.053Z,46.72
2022-12-04T22:24:49.611Z,40.72
2022-12-04T22:27:45.487Z,46.10
2022-12-04T22:36:38.664Z,44.67
2022-12-04T22:40:43.118Z,44.63
2022-12-04T22:43:04.346Z,41.88
2022-12-04T22:48:32.701Z,42.75
2022-12-04T22:51:27.374Z,48.90
2022-12-04T23:04:08.712Z,38.60
2022-12-04T23:06:56.878Z,37.58
2022-12-04T23:09:54.100Z,36.47
2022-12-04T23:12:56.350Z,34.85
2022-12-04T23:25:47.313Z,28.98
2022-12-04T23:45:27.929Z,29.05
